sensor_id;sensor_type;location;lat;lon;timestamp;P1;durP1;ratioP1;P2;durP2;ratioP2
8913;SDS011;4492;48.736;9.092;2023-03-15T00:01:37;5.47;;;2.60;;
8913;SDS011;4492;48.736;9.092;2023-03-15T00:04:03;3.87;;;2.40;;
8913;SDS011;4492;48.736;9.092;2023-03-15T00:06:31;5.50;;;2.53;;
8913;SDS011;4492;48.736;9.092;2023-03-15T00:08:58;8.10;;;3.13;;
8913;SDS011;4492;48.736;9.092;2023-03-15T00:11:25;3.53;;;2.60;;
8913;SDS011;4492;48.736;9.092;2023-03-15T00:13:52;4.30;;;3.00;;
8913;SDS011;4492;48.736;9.092;2023-03-15T00:16:17;8.43;;;3.30;;
8913;SDS011;4492;48.736;9.092;2023-03-15T00:18:44;5.60;;;3.40;;
8913;SDS011;4492;48.736;9.092;2023-03-15T00:21:11;6.00;;;3.20;;
8913;SDS011;4492;48.736;9.092;2023-03-15T00:23:36;6.90;;;3.60;;
8913;SDS011;4492;48.736;9.092;2023-03-15T00:26:02;6.63;;;3.50;;
8913;SDS011;4492;48.736;9.092;2023-03-15T00:28:28;8.50;;;3.33;;
8913;SDS011;4492;48.736;9.092;2023-03-15T00:31:03;8.43;;;3.30;;
8913;SDS011;4492;48.736;9.092;2023-03-15T00:33:29;7.93;;;3.70;;
8913;SDS011;4492;48.736;9.092;2023-03-15T00:35:58;6.53;;;3.00;;
8913;SDS011;4492;48.736;9.092;2023-03-15T00:38:26;5.23;;;3.40;;
8913;SDS011;4492;48.736;9.092;2023-03-15T00:40:52;11.63;;;3.67;;
8913;SDS011;4492;48.736;9.092;2023-03-15T00:43:17;7.97;;;3.73;;
8913;SDS011;4492;48.736;9.092;2023-03-15T00:45:43;8.70;;;3.53;;
8913;SDS011;4492;48.736;9.092;2023-03-15T00:48:09;5.70;;;3.20;;
8913;SDS011;4492;48.736;9.092;2023-03-15T00:50:34;5.90;;;3.23;;
8913;SDS011;4492;48.736;9.092;2023-03-15T00:53:00;8.40;;;3.20;;
8913;SDS011;4492;48.736;9.092;2023-03-15T00:55:25;7.93;;;3.07;;
8913;SDS011;4492;48.736;9.092;2023-03-15T00:57:51;8.13;;;2.90;;
8913;SDS011;4492;48.736;9.092;2023-03-15T01:00:18;8.93;;;3.10;;
8913;SDS011;4492;48.736;9.092;2023-03-15T01:02:44;9.37;;;3.40;;
8913;SDS011;4492;48.736;9.092;2023-03-15T01:05:10;8.53;;;3.13;;
8913;SDS011;4492;48.736;9.092;2023-03-15T01:07:36;7.23;;;3.37;;
8913;SDS011;4492;48.736;9.092;2023-03-15T01:10:02;9.37;;;3.03;;
8913;SDS011;4492;48.736;9.092;2023-03-15T01:12:29;8.70;;;3.13;;
8913;SDS011;4492;48.736;9.092;2023-03-15T01:14:59;5.67;;;3.10;;
8913;SDS011;4492;48.736;9.092;2023-03-15T01:17:26;7.00;;;2.90;;
8913;SDS011;4492;48.736;9.092;2023-03-15T01:19:51;6.87;;;2.53;;
8913;SDS011;4492;48.736;9.092;2023-03-15T01:22:18;8.20;;;2.77;;
8913;SDS011;4492;48.736;9.092;2023-03-15T01:24:44;8.17;;;2.70;;
8913;SDS011;4492;48.736;9.092;2023-03-15T01:27:09;8.50;;;2.53;;
8913;SDS011;4492;48.736;9.092;2023-03-15T01:29:35;5.33;;;2.17;;
8913;SDS011;4492;48.736;9.092;2023-03-15T01:32:01;6.03;;;2.07;;
8913;SDS011;4492;48.736;9.092;2023-03-15T01:34:26;6.93;;;2.00;;
8913;SDS011;4492;48.736;9.092;2023-03-15T01:36:52;4.60;;;2.30;;
8913;SDS011;4492;48.736;9.092;2023-03-15T01:39:17;6.27;;;2.33;;
8913;SDS011;4492;48.736;9.092;2023-03-15T01:41:43;7.00;;;2.30;;
8913;SDS011;4492;48.736;9.092;2023-03-15T01:44:15;5.87;;;1.93;;
8913;SDS011;4492;48.736;9.092;2023-03-15T01:46:42;5.77;;;2.27;;
8913;SDS011;4492;48.736;9.092;2023-03-15T01:51:50;2.73;;;2.37;;
8913;SDS011;4492;48.736;9.092;2023-03-15T01:56:51;10.97;;;2.00;;
8913;SDS011;4492;48.736;9.092;2023-03-15T01:59:23;3.40;;;1.83;;
8913;SDS011;4492;48.736;9.092;2023-03-15T02:01:52;5.47;;;1.57;;
8913;SDS011;4492;48.736;9.092;2023-03-15T02:04:30;5.00;;;1.60;;
8913;SDS011;4492;48.736;9.092;2023-03-15T02:07:00;5.43;;;1.63;;
8913;SDS011;4492;48.736;9.092;2023-03-15T02:09:35;4.43;;;2.00;;
8913;SDS011;4492;48.736;9.092;2023-03-15T02:12:06;3.13;;;1.17;;
8913;SDS011;4492;48.736;9.092;2023-03-15T02:14:33;8.63;;;1.63;;
8913;SDS011;4492;48.736;9.092;2023-03-15T02:16:59;3.57;;;1.60;;
8913;SDS011;4492;48.736;9.092;2023-03-15T02:22:46;2.00;;;1.10;;
8913;SDS011;4492;48.736;9.092;2023-03-15T02:25:35;5.00;;;1.50;;
8913;SDS011;4492;48.736;9.092;2023-03-15T02:28:28;4.17;;;1.37;;
8913;SDS011;4492;48.736;9.092;2023-03-15T02:30:54;5.20;;;1.20;;
8913;SDS011;4492;48.736;9.092;2023-03-15T02:33:24;2.17;;;1.27;;
8913;SDS011;4492;48.736;9.092;2023-03-15T02:35:53;6.43;;;1.40;;
8913;SDS011;4492;48.736;9.092;2023-03-15T02:38:19;3.17;;;1.13;;
8913;SDS011;4492;48.736;9.092;2023-03-15T02:40:46;3.60;;;1.30;;
8913;SDS011;4492;48.736;9.092;2023-03-15T02:43:16;2.07;;;0.90;;
8913;SDS011;4492;48.736;9.092;2023-03-15T02:45:46;5.17;;;1.40;;
8913;SDS011;4492;48.736;9.092;2023-03-15T02:48:13;6.43;;;1.20;;
8913;SDS011;4492;48.736;9.092;2023-03-15T02:50:39;4.57;;;1.10;;
8913;SDS011;4492;48.736;9.092;2023-03-15T02:53:05;5.33;;;1.20;;
8913;SDS011;4492;48.736;9.092;2023-03-15T02:55:30;5.13;;;1.40;;
8913;SDS011;4492;48.736;9.092;2023-03-15T02:58:00;5.03;;;1.30;;
8913;SDS011;4492;48.736;9.092;2023-03-15T03:00:26;2.93;;;1.20;;
8913;SDS011;4492;48.736;9.092;2023-03-15T03:02:52;7.00;;;1.33;;
8913;SDS011;4492;48.736;9.092;2023-03-15T03:05:18;4.33;;;1.40;;
8913;SDS011;4492;48.736;9.092;2023-03-15T03:07:43;3.40;;;1.33;;
8913;SDS011;4492;48.736;9.092;2023-03-15T03:10:10;7.37;;;1.70;;
8913;SDS011;4492;48.736;9.092;2023-03-15T03:12:38;5.10;;;1.50;;
8913;SDS011;4492;48.736;9.092;2023-03-15T03:15:03;4.13;;;1.83;;
8913;SDS011;4492;48.736;9.092;2023-03-15T03:17:29;3.57;;;1.50;;
8913;SDS011;4492;48.736;9.092;2023-03-15T03:19:55;8.60;;;1.73;;
8913;SDS011;4492;48.736;9.092;2023-03-15T03:22:21;3.70;;;1.60;;
8913;SDS011;4492;48.736;9.092;2023-03-15T03:24:48;2.93;;;1.43;;
8913;SDS011;4492;48.736;9.092;2023-03-15T03:27:15;4.10;;;1.57;;
8913;SDS011;4492;48.736;9.092;2023-03-15T03:29:41;8.30;;;1.70;;
8913;SDS011;4492;48.736;9.092;2023-03-15T03:32:07;7.30;;;1.73;;
8913;SDS011;4492;48.736;9.092;2023-03-15T03:34:34;4.03;;;1.80;;
8913;SDS011;4492;48.736;9.092;2023-03-15T03:37:00;9.77;;;1.90;;
8913;SDS011;4492;48.736;9.092;2023-03-15T03:39:26;6.50;;;1.80;;
8913;SDS011;4492;48.736;9.092;2023-03-15T03:41:51;8.47;;;1.67;;
8913;SDS011;4492;48.736;9.092;2023-03-15T03:44:17;3.80;;;1.60;;
8913;SDS011;4492;48.736;9.092;2023-03-15T03:46:43;4.87;;;1.87;;
8913;SDS011;4492;48.736;9.092;2023-03-15T03:49:09;12.63;;;2.43;;
8913;SDS011;4492;48.736;9.092;2023-03-15T03:51:34;14.23;;;2.70;;
8913;SDS011;4492;48.736;9.092;2023-03-15T03:54:01;6.83;;;2.20;;
8913;SDS011;4492;48.736;9.092;2023-03-15T03:56:27;3.80;;;2.20;;
8913;SDS011;4492;48.736;9.092;2023-03-15T03:58:53;16.53;;;2.90;;
8913;SDS011;4492;48.736;9.092;2023-03-15T04:01:18;9.20;;;2.50;;
8913;SDS011;4492;48.736;9.092;2023-03-15T04:03:46;5.37;;;2.67;;
8913;SDS011;4492;48.736;9.092;2023-03-15T04:06:12;6.63;;;2.23;;
8913;SDS011;4492;48.736;9.092;2023-03-15T04:08:37;9.00;;;2.60;;
8913;SDS011;4492;48.736;9.092;2023-03-15T04:11:04;8.03;;;2.37;;
8913;SDS011;4492;48.736;9.092;2023-03-15T04:13:30;10.37;;;2.10;;
8913;SDS011;4492;48.736;9.092;2023-03-15T04:15:57;10.67;;;2.73;;
8913;SDS011;4492;48.736;9.092;2023-03-15T04:18:25;4.33;;;2.00;;
8913;SDS011;4492;48.736;9.092;2023-03-15T04:20:51;5.43;;;2.37;;
8913;SDS011;4492;48.736;9.092;2023-03-15T04:23:19;9.83;;;2.93;;
8913;SDS011;4492;48.736;9.092;2023-03-15T04:25:47;3.43;;;1.93;;
8913;SDS011;4492;48.736;9.092;2023-03-15T04:28:13;14.33;;;2.77;;
8913;SDS011;4492;48.736;9.092;2023-03-15T04:30:39;8.10;;;3.00;;
8913;SDS011;4492;48.736;9.092;2023-03-15T04:33:07;5.23;;;2.57;;
8913;SDS011;4492;48.736;9.092;2023-03-15T04:35:33;3.97;;;2.57;;
8913;SDS011;4492;48.736;9.092;2023-03-15T04:38:00;12.90;;;2.70;;
8913;SDS011;4492;48.736;9.092;2023-03-15T04:40:27;7.43;;;2.43;;
8913;SDS011;4492;48.736;9.092;2023-03-15T04:42:54;9.47;;;3.47;;
8913;SDS011;4492;48.736;9.092;2023-03-15T04:45:21;11.97;;;3.80;;
8913;SDS011;4492;48.736;9.092;2023-03-15T04:47:48;17.93;;;3.03;;
8913;SDS011;4492;48.736;9.092;2023-03-15T04:50:17;10.30;;;3.57;;
8913;SDS011;4492;48.736;9.092;2023-03-15T04:52:43;11.53;;;3.53;;
8913;SDS011;4492;48.736;9.092;2023-03-15T04:55:09;8.80;;;3.10;;
8913;SDS011;4492;48.736;9.092;2023-03-15T04:57:35;6.50;;;3.50;;
8913;SDS011;4492;48.736;9.092;2023-03-15T05:00:00;11.17;;;3.47;;
8913;SDS011;4492;48.736;9.092;2023-03-15T05:02:28;9.13;;;3.03;;
8913;SDS011;4492;48.736;9.092;2023-03-15T05:04:53;6.27;;;2.63;;
8913;SDS011;4492;48.736;9.092;2023-03-15T05:07:19;13.43;;;2.63;;
8913;SDS011;4492;48.736;9.092;2023-03-15T05:09:44;7.83;;;2.87;;
8913;SDS011;4492;48.736;9.092;2023-03-15T05:12:11;8.23;;;3.27;;
8913;SDS011;4492;48.736;9.092;2023-03-15T05:14:37;11.83;;;3.40;;
8913;SDS011;4492;48.736;9.092;2023-03-15T05:17:02;8.37;;;3.30;;
8913;SDS011;4492;48.736;9.092;2023-03-15T05:19:28;11.93;;;3.00;;
8913;SDS011;4492;48.736;9.092;2023-03-15T05:21:58;11.43;;;3.00;;
8913;SDS011;4492;48.736;9.092;2023-03-15T05:24:24;12.37;;;3.50;;
8913;SDS011;4492;48.736;9.092;2023-03-15T05:26:50;8.60;;;3.13;;
8913;SDS011;4492;48.736;9.092;2023-03-15T05:29:18;7.33;;;3.00;;
8913;SDS011;4492;48.736;9.092;2023-03-15T05:31:45;7.83;;;3.03;;
8913;SDS011;4492;48.736;9.092;2023-03-15T05:34:11;8.60;;;3.93;;
8913;SDS011;4492;48.736;9.092;2023-03-15T05:36:36;9.33;;;3.17;;
8913;SDS011;4492;48.736;9.092;2023-03-15T05:39:02;5.63;;;3.10;;
8913;SDS011;4492;48.736;9.092;2023-03-15T05:41:27;10.27;;;4.07;;
8913;SDS011;4492;48.736;9.092;2023-03-15T05:43:53;10.80;;;3.60;;
8913;SDS011;4492;48.736;9.092;2023-03-15T05:46:18;10.97;;;3.33;;
8913;SDS011;4492;48.736;9.092;2023-03-15T05:48:46;10.53;;;3.93;;
8913;SDS011;4492;48.736;9.092;2023-03-15T05:51:12;16.90;;;3.97;;
8913;SDS011;4492;48.736;9.092;2023-03-15T05:53:38;12.47;;;3.47;;
8913;SDS011;4492;48.736;9.092;2023-03-15T05:56:03;7.57;;;3.50;;
8913;SDS011;4492;48.736;9.092;2023-03-15T05:58:29;13.73;;;3.60;;
8913;SDS011;4492;48.736;9.092;2023-03-15T06:00:55;15.23;;;3.63;;
8913;SDS011;4492;48.736;9.092;2023-03-15T06:03:20;6.57;;;3.57;;
8913;SDS011;4492;48.736;9.092;2023-03-15T06:05:46;12.13;;;4.10;;
8913;SDS011;4492;48.736;9.092;2023-03-15T06:08:11;12.23;;;4.20;;
8913;SDS011;4492;48.736;9.092;2023-03-15T06:10:37;9.33;;;3.43;;
8913;SDS011;4492;48.736;9.092;2023-03-15T06:13:02;14.57;;;4.00;;
8913;SDS011;4492;48.736;9.092;2023-03-15T06:15:28;14.80;;;3.47;;
8913;SDS011;4492;48.736;9.092;2023-03-15T06:17:53;6.90;;;3.27;;
8913;SDS011;4492;48.736;9.092;2023-03-15T06:20:19;12.53;;;3.40;;
8913;SDS011;4492;48.736;9.092;2023-03-15T06:22:44;11.67;;;3.53;;
8913;SDS011;4492;48.736;9.092;2023-03-15T06:25:10;8.53;;;3.70;;
8913;SDS011;4492;48.736;9.092;2023-03-15T06:27:36;7.17;;;2.97;;
8913;SDS011;4492;48.736;9.092;2023-03-15T06:30:02;7.67;;;3.13;;
8913;SDS011;4492;48.736;9.092;2023-03-15T06:32:28;7.87;;;3.17;;
8913;SDS011;4492;48.736;9.092;2023-03-15T06:34:54;3.93;;;2.90;;
8913;SDS011;4492;48.736;9.092;2023-03-15T06:37:20;8.77;;;3.23;;
8913;SDS011;4492;48.736;9.092;2023-03-15T06:39:46;9.63;;;3.47;;
8913;SDS011;4492;48.736;9.092;2023-03-15T06:42:12;9.13;;;2.87;;
8913;SDS011;4492;48.736;9.092;2023-03-15T06:44:38;3.80;;;2.70;;
8913;SDS011;4492;48.736;9.092;2023-03-15T06:47:04;12.97;;;4.37;;
8913;SDS011;4492;48.736;9.092;2023-03-15T06:49:30;9.77;;;4.80;;
8913;SDS011;4492;48.736;9.092;2023-03-15T06:51:56;11.87;;;3.87;;
8913;SDS011;4492;48.736;9.092;2023-03-15T06:54:22;8.63;;;2.80;;
8913;SDS011;4492;48.736;9.092;2023-03-15T06:56:48;4.60;;;2.57;;
8913;SDS011;4492;48.736;9.092;2023-03-15T06:59:13;7.67;;;3.20;;
8913;SDS011;4492;48.736;9.092;2023-03-15T07:01:39;7.10;;;2.73;;
8913;SDS011;4492;48.736;9.092;2023-03-15T07:04:05;9.00;;;2.37;;
8913;SDS011;4492;48.736;9.092;2023-03-15T07:06:30;7.00;;;2.97;;
8913;SDS011;4492;48.736;9.092;2023-03-15T07:08:56;6.53;;;2.40;;
8913;SDS011;4492;48.736;9.092;2023-03-15T07:11:21;8.23;;;2.60;;
8913;SDS011;4492;48.736;9.092;2023-03-15T07:13:47;12.97;;;2.83;;
8913;SDS011;4492;48.736;9.092;2023-03-15T07:16:12;8.93;;;2.60;;
8913;SDS011;4492;48.736;9.092;2023-03-15T07:18:38;5.17;;;2.20;;
8913;SDS011;4492;48.736;9.092;2023-03-15T07:21:03;8.43;;;2.23;;
8913;SDS011;4492;48.736;9.092;2023-03-15T07:23:31;9.27;;;2.20;;
8913;SDS011;4492;48.736;9.092;2023-03-15T07:25:57;7.53;;;2.40;;
8913;SDS011;4492;48.736;9.092;2023-03-15T07:28:23;6.27;;;3.23;;
8913;SDS011;4492;48.736;9.092;2023-03-15T07:30:57;8.30;;;1.77;;
8913;SDS011;4492;48.736;9.092;2023-03-15T07:33:24;5.47;;;2.00;;
8913;SDS011;4492;48.736;9.092;2023-03-15T07:35:52;13.73;;;1.93;;
8913;SDS011;4492;48.736;9.092;2023-03-15T07:38:18;5.40;;;1.87;;
8913;SDS011;4492;48.736;9.092;2023-03-15T07:40:44;4.90;;;2.10;;
8913;SDS011;4492;48.736;9.092;2023-03-15T07:43:10;12.07;;;2.00;;
8913;SDS011;4492;48.736;9.092;2023-03-15T07:45:36;10.07;;;2.27;;
8913;SDS011;4492;48.736;9.092;2023-03-15T07:48:01;14.03;;;2.37;;
8913;SDS011;4492;48.736;9.092;2023-03-15T07:50:27;6.50;;;1.90;;
8913;SDS011;4492;48.736;9.092;2023-03-15T07:52:53;5.90;;;1.83;;
8913;SDS011;4492;48.736;9.092;2023-03-15T07:55:18;7.37;;;1.90;;
8913;SDS011;4492;48.736;9.092;2023-03-15T07:57:44;5.73;;;1.97;;
8913;SDS011;4492;48.736;9.092;2023-03-15T08:00:10;6.20;;;2.33;;
8913;SDS011;4492;48.736;9.092;2023-03-15T08:02:37;8.07;;;3.40;;
8913;SDS011;4492;48.736;9.092;2023-03-15T08:05:03;6.07;;;2.40;;
8913;SDS011;4492;48.736;9.092;2023-03-15T08:07:29;8.53;;;2.00;;
8913;SDS011;4492;48.736;9.092;2023-03-15T08:09:55;4.27;;;1.70;;
8913;SDS011;4492;48.736;9.092;2023-03-15T08:12:22;2.30;;;1.87;;
8913;SDS011;4492;48.736;9.092;2023-03-15T08:14:48;8.70;;;2.07;;
8913;SDS011;4492;48.736;9.092;2023-03-15T08:17:15;5.57;;;2.23;;
8913;SDS011;4492;48.736;9.092;2023-03-15T08:19:41;5.40;;;2.10;;
8913;SDS011;4492;48.736;9.092;2023-03-15T08:22:07;8.33;;;1.90;;
8913;SDS011;4492;48.736;9.092;2023-03-15T08:24:32;3.30;;;1.80;;
8913;SDS011;4492;48.736;9.092;2023-03-15T08:26:58;5.93;;;2.30;;
8913;SDS011;4492;48.736;9.092;2023-03-15T08:29:23;4.17;;;1.70;;
8913;SDS011;4492;48.736;9.092;2023-03-15T08:31:49;8.40;;;1.80;;
8913;SDS011;4492;48.736;9.092;2023-03-15T08:34:14;4.47;;;1.40;;
8913;SDS011;4492;48.736;9.092;2023-03-15T08:36:40;3.80;;;1.30;;
8913;SDS011;4492;48.736;9.092;2023-03-15T08:39:06;6.30;;;2.00;;
8913;SDS011;4492;48.736;9.092;2023-03-15T08:41:32;5.53;;;1.87;;
8913;SDS011;4492;48.736;9.092;2023-03-15T08:43:58;8.80;;;1.57;;
8913;SDS011;4492;48.736;9.092;2023-03-15T08:46:25;5.17;;;1.43;;
8913;SDS011;4492;48.736;9.092;2023-03-15T08:48:51;6.80;;;1.80;;
8913;SDS011;4492;48.736;9.092;2023-03-15T08:51:17;4.60;;;1.57;;
8913;SDS011;4492;48.736;9.092;2023-03-15T08:53:43;6.70;;;1.47;;
8913;SDS011;4492;48.736;9.092;2023-03-15T08:56:09;5.27;;;1.90;;
8913;SDS011;4492;48.736;9.092;2023-03-15T08:58:35;6.93;;;1.50;;
8913;SDS011;4492;48.736;9.092;2023-03-15T09:01:01;5.00;;;1.53;;
8913;SDS011;4492;48.736;9.092;2023-03-15T09:03:26;5.17;;;1.90;;
8913;SDS011;4492;48.736;9.092;2023-03-15T09:05:56;3.20;;;1.70;;
8913;SDS011;4492;48.736;9.092;2023-03-15T09:08:22;3.93;;;2.00;;
8913;SDS011;4492;48.736;9.092;2023-03-15T09:10:52;3.80;;;1.80;;
8913;SDS011;4492;48.736;9.092;2023-03-15T09:13:20;2.93;;;1.37;;
8913;SDS011;4492;48.736;9.092;2023-03-15T09:15:48;3.53;;;1.40;;
8913;SDS011;4492;48.736;9.092;2023-03-15T09:18:18;4.17;;;1.40;;
8913;SDS011;4492;48.736;9.092;2023-03-15T09:20:44;7.33;;;1.40;;
8913;SDS011;4492;48.736;9.092;2023-03-15T09:23:10;6.80;;;1.37;;
8913;SDS011;4492;48.736;9.092;2023-03-15T09:25:35;5.03;;;1.40;;
8913;SDS011;4492;48.736;9.092;2023-03-15T09:28:01;8.57;;;1.60;;
8913;SDS011;4492;48.736;9.092;2023-03-15T09:30:27;3.10;;;1.33;;
8913;SDS011;4492;48.736;9.092;2023-03-15T09:32:53;4.93;;;1.47;;
8913;SDS011;4492;48.736;9.092;2023-03-15T09:35:19;3.73;;;1.67;;
8913;SDS011;4492;48.736;9.092;2023-03-15T09:37:45;3.77;;;1.40;;
8913;SDS011;4492;48.736;9.092;2023-03-15T09:40:13;3.80;;;1.53;;
8913;SDS011;4492;48.736;9.092;2023-03-15T09:48:26;3.10;;;1.30;;
8913;SDS011;4492;48.736;9.092;2023-03-15T09:51:01;5.13;;;0.97;;
8913;SDS011;4492;48.736;9.092;2023-03-15T09:56:27;3.33;;;1.10;;
8913;SDS011;4492;48.736;9.092;2023-03-15T09:59:03;2.73;;;1.10;;
8913;SDS011;4492;48.736;9.092;2023-03-15T10:01:31;3.83;;;0.90;;
8913;SDS011;4492;48.736;9.092;2023-03-15T10:04:08;6.23;;;0.90;;
8913;SDS011;4492;48.736;9.092;2023-03-15T10:06:58;1.80;;;0.97;;
8913;SDS011;4492;48.736;9.092;2023-03-15T10:09:27;5.63;;;0.93;;
8913;SDS011;4492;48.736;9.092;2023-03-15T10:12:33;2.70;;;1.00;;
8913;SDS011;4492;48.736;9.092;2023-03-15T10:15:15;5.60;;;0.90;;
8913;SDS011;4492;48.736;9.092;2023-03-15T10:17:51;3.83;;;1.10;;
8913;SDS011;4492;48.736;9.092;2023-03-15T10:20:31;5.87;;;1.03;;
8913;SDS011;4492;48.736;9.092;2023-03-15T10:23:07;4.10;;;1.07;;
8913;SDS011;4492;48.736;9.092;2023-03-15T10:25:43;2.83;;;1.27;;
8913;SDS011;4492;48.736;9.092;2023-03-15T10:28:29;1.40;;;0.90;;
8913;SDS011;4492;48.736;9.092;2023-03-15T10:30:59;2.67;;;0.90;;
8913;SDS011;4492;48.736;9.092;2023-03-15T10:33:33;2.73;;;0.80;;
8913;SDS011;4492;48.736;9.092;2023-03-15T10:36:00;3.40;;;0.90;;
8913;SDS011;4492;48.736;9.092;2023-03-15T10:38:27;6.07;;;1.00;;
8913;SDS011;4492;48.736;9.092;2023-03-15T10:40:54;4.17;;;1.00;;
8913;SDS011;4492;48.736;9.092;2023-03-15T10:45:58;4.63;;;0.80;;
8913;SDS011;4492;48.736;9.092;2023-03-15T10:48:26;2.53;;;1.03;;
8913;SDS011;4492;48.736;9.092;2023-03-15T10:50:53;3.10;;;1.10;;
8913;SDS011;4492;48.736;9.092;2023-03-15T10:53:20;2.20;;;0.60;;
8913;SDS011;4492;48.736;9.092;2023-03-15T10:55:49;2.80;;;0.80;;
8913;SDS011;4492;48.736;9.092;2023-03-15T10:58:25;2.03;;;0.70;;
8913;SDS011;4492;48.736;9.092;2023-03-15T11:01:00;2.77;;;0.80;;
8913;SDS011;4492;48.736;9.092;2023-03-15T11:03:34;1.87;;;1.10;;
8913;SDS011;4492;48.736;9.092;2023-03-15T11:06:01;1.40;;;0.70;;
8913;SDS011;4492;48.736;9.092;2023-03-15T11:08:40;5.27;;;0.90;;
8913;SDS011;4492;48.736;9.092;2023-03-15T11:11:06;1.77;;;0.83;;
8913;SDS011;4492;48.736;9.092;2023-03-15T11:13:33;4.10;;;0.93;;
8913;SDS011;4492;48.736;9.092;2023-03-15T11:18:51;4.07;;;0.90;;
8913;SDS011;4492;48.736;9.092;2023-03-15T11:21:23;4.23;;;0.70;;
8913;SDS011;4492;48.736;9.092;2023-03-15T11:23:52;3.20;;;0.80;;
8913;SDS011;4492;48.736;9.092;2023-03-15T11:26:23;3.23;;;0.60;;
8913;SDS011;4492;48.736;9.092;2023-03-15T11:28:51;4.07;;;0.73;;
8913;SDS011;4492;48.736;9.092;2023-03-15T11:31:20;2.67;;;0.37;;
8913;SDS011;4492;48.736;9.092;2023-03-15T11:33:52;2.37;;;0.60;;
8913;SDS011;4492;48.736;9.092;2023-03-15T11:36:23;2.17;;;0.60;;
8913;SDS011;4492;48.736;9.092;2023-03-15T11:38:55;2.70;;;0.77;;
8913;SDS011;4492;48.736;9.092;2023-03-15T11:41:32;1.80;;;0.67;;
8913;SDS011;4492;48.736;9.092;2023-03-15T11:44:13;4.37;;;0.70;;
8913;SDS011;4492;48.736;9.092;2023-03-15T11:49:42;3.77;;;0.50;;
8913;SDS011;4492;48.736;9.092;2023-03-15T11:52:14;1.13;;;0.40;;
8913;SDS011;4492;48.736;9.092;2023-03-15T11:54:46;1.87;;;0.37;;
8913;SDS011;4492;48.736;9.092;2023-03-15T11:59:52;3.77;;;0.40;;
8913;SDS011;4492;48.736;9.092;2023-03-15T12:04:45;0.40;;;0.30;;
8913;SDS011;4492;48.736;9.092;2023-03-15T12:22:50;2.53;;;0.67;;
8913;SDS011;4492;48.736;9.092;2023-03-15T12:25:36;1.07;;;0.50;;
8913;SDS011;4492;48.736;9.092;2023-03-15T12:28:04;2.20;;;0.63;;
8913;SDS011;4492;48.736;9.092;2023-03-15T12:30:42;1.93;;;0.50;;
8913;SDS011;4492;48.736;9.092;2023-03-15T12:33:16;3.03;;;0.60;;
8913;SDS011;4492;48.736;9.092;2023-03-15T12:35:44;2.07;;;0.50;;
8913;SDS011;4492;48.736;9.092;2023-03-15T12:38:13;1.23;;;0.70;;
8913;SDS011;4492;48.736;9.092;2023-03-15T12:43:33;1.80;;;0.60;;
8913;SDS011;4492;48.736;9.092;2023-03-15T12:49:10;1.57;;;0.70;;
8913;SDS011;4492;48.736;9.092;2023-03-15T12:52:04;7.93;;;1.03;;
8913;SDS011;4492;48.736;9.092;2023-03-15T12:54:33;1.37;;;0.33;;
8913;SDS011;4492;48.736;9.092;2023-03-15T12:57:35;1.30;;;0.50;;
8913;SDS011;4492;48.736;9.092;2023-03-15T13:00:11;1.20;;;0.50;;
8913;SDS011;4492;48.736;9.092;2023-03-15T13:02:48;3.43;;;0.90;;
8913;SDS011;4492;48.736;9.092;2023-03-15T13:05:29;1.90;;;0.60;;
8913;SDS011;4492;48.736;9.092;2023-03-15T13:08:20;2.83;;;0.80;;
8913;SDS011;4492;48.736;9.092;2023-03-15T13:10:56;2.00;;;0.70;;
8913;SDS011;4492;48.736;9.092;2023-03-15T13:13:34;1.20;;;0.90;;
8913;SDS011;4492;48.736;9.092;2023-03-15T13:19:20;4.10;;;0.87;;
8913;SDS011;4492;48.736;9.092;2023-03-15T13:24:46;1.30;;;0.70;;
8913;SDS011;4492;48.736;9.092;2023-03-15T13:33:08;0.50;;;0.50;;
8913;SDS011;4492;48.736;9.092;2023-03-15T13:35:47;1.63;;;0.67;;
8913;SDS011;4492;48.736;9.092;2023-03-15T13:38:41;1.93;;;0.90;;
8913;SDS011;4492;48.736;9.092;2023-03-15T13:41:42;1.80;;;0.70;;
8913;SDS011;4492;48.736;9.092;2023-03-15T13:44:03;1.87;;;0.87;;
8913;SDS011;4492;48.736;9.092;2023-03-15T13:46:38;2.90;;;0.90;;
8913;SDS011;4492;48.736;9.092;2023-03-15T13:49:04;1.67;;;0.83;;
8913;SDS011;4492;48.736;9.092;2023-03-15T13:51:31;3.30;;;1.63;;
8913;SDS011;4492;48.736;9.092;2023-03-15T13:56:52;2.30;;;0.90;;
8913;SDS011;4492;48.736;9.092;2023-03-15T13:59:51;3.23;;;1.13;;
8913;SDS011;4492;48.736;9.092;2023-03-15T14:02:24;2.17;;;0.90;;
8913;SDS011;4492;48.736;9.092;2023-03-15T14:05:01;1.83;;;0.93;;
8913;SDS011;4492;48.736;9.092;2023-03-15T14:07:40;2.33;;;0.90;;
8913;SDS011;4492;48.736;9.092;2023-03-15T14:12:46;1.97;;;1.03;;
8913;SDS011;4492;48.736;9.092;2023-03-15T14:15:20;1.93;;;1.03;;
8913;SDS011;4492;48.736;9.092;2023-03-15T14:17:53;2.70;;;1.20;;
8913;SDS011;4492;48.736;9.092;2023-03-15T14:20:27;3.40;;;1.23;;
8913;SDS011;4492;48.736;9.092;2023-03-15T14:22:58;1.13;;;0.80;;
8913;SDS011;4492;48.736;9.092;2023-03-15T14:25:25;4.63;;;1.20;;
8913;SDS011;4492;48.736;9.092;2023-03-15T14:27:51;3.27;;;0.90;;
8913;SDS011;4492;48.736;9.092;2023-03-15T14:30:21;2.13;;;1.00;;
8913;SDS011;4492;48.736;9.092;2023-03-15T14:32:51;2.17;;;0.87;;
8913;SDS011;4492;48.736;9.092;2023-03-15T14:35:23;2.43;;;1.27;;
8913;SDS011;4492;48.736;9.092;2023-03-15T14:38:22;1.67;;;0.70;;
8913;SDS011;4492;48.736;9.092;2023-03-15T14:40:50;2.20;;;1.00;;
8913;SDS011;4492;48.736;9.092;2023-03-15T14:43:17;1.83;;;0.80;;
8913;SDS011;4492;48.736;9.092;2023-03-15T14:45:45;1.50;;;0.77;;
8913;SDS011;4492;48.736;9.092;2023-03-15T14:48:20;1.63;;;0.80;;
8913;SDS011;4492;48.736;9.092;2023-03-15T14:50:53;3.37;;;0.70;;
8913;SDS011;4492;48.736;9.092;2023-03-15T14:53:20;1.83;;;0.90;;
8913;SDS011;4492;48.736;9.092;2023-03-15T14:55:48;2.30;;;0.77;;
8913;SDS011;4492;48.736;9.092;2023-03-15T14:58:15;1.00;;;0.70;;
8913;SDS011;4492;48.736;9.092;2023-03-15T15:00:43;1.20;;;0.80;;
8913;SDS011;4492;48.736;9.092;2023-03-15T15:03:22;1.53;;;1.00;;
8913;SDS011;4492;48.736;9.092;2023-03-15T15:05:58;1.20;;;1.00;;
8913;SDS011;4492;48.736;9.092;2023-03-15T15:08:25;4.63;;;1.07;;
8913;SDS011;4492;48.736;9.092;2023-03-15T15:10:51;1.63;;;1.33;;
8913;SDS011;4492;48.736;9.092;2023-03-15T15:13:21;3.40;;;1.00;;
8913;SDS011;4492;48.736;9.092;2023-03-15T15:15:48;2.27;;;1.00;;
8913;SDS011;4492;48.736;9.092;2023-03-15T15:18:14;1.73;;;1.00;;
8913;SDS011;4492;48.736;9.092;2023-03-15T15:20:40;2.90;;;0.90;;
8913;SDS011;4492;48.736;9.092;2023-03-15T15:23:10;2.00;;;1.00;;
8913;SDS011;4492;48.736;9.092;2023-03-15T15:25:42;1.10;;;1.10;;
8913;SDS011;4492;48.736;9.092;2023-03-15T15:28:08;0.90;;;0.80;;
8913;SDS011;4492;48.736;9.092;2023-03-15T15:30:34;1.00;;;0.73;;
8913;SDS011;4492;48.736;9.092;2023-03-15T15:32:59;0.50;;;0.50;;
8913;SDS011;4492;48.736;9.092;2023-03-15T15:35:25;1.20;;;0.70;;
8913;SDS011;4492;48.736;9.092;2023-03-15T15:37:51;1.83;;;0.57;;
8913;SDS011;4492;48.736;9.092;2023-03-15T15:40:21;1.50;;;0.70;;
8913;SDS011;4492;48.736;9.092;2023-03-15T15:42:51;0.60;;;0.60;;
8913;SDS011;4492;48.736;9.092;2023-03-15T15:45:17;1.17;;;0.90;;
8913;SDS011;4492;48.736;9.092;2023-03-15T15:47:44;1.63;;;0.90;;
8913;SDS011;4492;48.736;9.092;2023-03-15T15:50:11;0.80;;;0.80;;
8913;SDS011;4492;48.736;9.092;2023-03-15T15:52:42;1.73;;;0.90;;
8913;SDS011;4492;48.736;9.092;2023-03-15T15:55:11;3.20;;;0.90;;
8913;SDS011;4492;48.736;9.092;2023-03-15T15:57:38;1.83;;;0.90;;
8913;SDS011;4492;48.736;9.092;2023-03-15T16:00:06;1.33;;;1.00;;
8913;SDS011;4492;48.736;9.092;2023-03-15T16:02:37;2.43;;;0.80;;
8913;SDS011;4492;48.736;9.092;2023-03-15T16:05:02;1.27;;;1.13;;
8913;SDS011;4492;48.736;9.092;2023-03-15T16:07:28;1.40;;;0.87;;
8913;SDS011;4492;48.736;9.092;2023-03-15T16:09:54;1.00;;;0.90;;
8913;SDS011;4492;48.736;9.092;2023-03-15T16:12:21;3.23;;;1.10;;
8913;SDS011;4492;48.736;9.092;2023-03-15T16:14:49;0.93;;;0.83;;
8913;SDS011;4492;48.736;9.092;2023-03-15T16:19:48;0.90;;;0.83;;
8913;SDS011;4492;48.736;9.092;2023-03-15T16:22:14;1.23;;;1.13;;
8913;SDS011;4492;48.736;9.092;2023-03-15T16:24:41;1.30;;;1.20;;
8913;SDS011;4492;48.736;9.092;2023-03-15T16:27:16;1.43;;;1.17;;
8913;SDS011;4492;48.736;9.092;2023-03-15T16:29:45;0.80;;;0.80;;
8913;SDS011;4492;48.736;9.092;2023-03-15T16:32:13;0.70;;;0.70;;
8913;SDS011;4492;48.736;9.092;2023-03-15T16:34:40;3.80;;;1.17;;
8913;SDS011;4492;48.736;9.092;2023-03-15T16:37:09;2.80;;;1.30;;